Slidell, LA

6:08 AM CST on December 05, 2016 (GMT -0600)
Slidell | | Change Station

Elev 30 ft 30.34 °N, 89.82 °W | Updated 15 minutes ago

Overcast
Overcast
58 °F
Feels Like 58 °F
N
7
Wind Variable Wind from NE

Today
High -- | Low -- °F
--% Chance of Precip.
Yesterday
High -- | Low -- °F
Precip. -- in
Pressure 29.87 in
Visibility 7.0 miles
Clouds Overcast 300 ft
Dew Point 57 °F
Humidity 97%
Rainfall 0.00 in
Snow Depth Not available.
6:41 AM 4:58 PM
Waxing Crescent, 31% visible
METAR KASD 051153Z AUTO 05006KT 7SM OVC003 14/14 A2987 RMK AO2 SLP115 70062 T01440139 10156 20144 58009
Pressure 29.87 in
Visibility 7.0 miles
Clouds Overcast 300 ft
Dew Point 57 °F
Humidity 97%
Rainfall 0.00 in
Snow Depth Not available.
6:41 AM 4:58 PM
Waxing Crescent, 31% visible
METAR KASD 051153Z AUTO 05006KT 7SM OVC003 14/14 A2987 RMK AO2 SLP115 70062 T01440139 10156 20144 58009

10-Day Weather Forecast

Almanac

Astronomy

Dec. 05, 2016 Rise Set
Actual Time
Civil Twilight
Nautical Twilight
Astronomical Twilight
Moon
Length of Visible Light
Length of Day
Tomorrow will be .
, % of the Moon is Illuminated

Today's Extremes

State Highs State Lows

Community

WunderPhotos

Upload Photos

1,955,779 photos uploaded!

WunderBlog® & News

Nearby

Air Quality

  Air Quality AQ Index Pollutant
Not available.

Snow Depth

Station Depth Elevation

Earthquake Activity

City Distance Mag. Time & Date
Minimum magnitude displayed is 2.5.

Coastal Water Temperatures

Place Temperature

Stations

Nearby Weather Stations

Station Location Temp. Windchill Dew Point Humidity Wind Precip. Elev Updated Type
                   

Watches & Warnings

There are currently no watches in effect.